createdAt,value
2023-02-16T00:04:17.219Z,27.2
2023-02-16T00:06:21.084Z,25.6
2023-02-16T00:08:27.606Z,25.2
2023-02-16T00:10:31.423Z,23
2023-02-16T00:12:35.193Z,23.1
2023-02-16T00:14:38.965Z,22.3
2023-02-16T00:16:42.768Z,21.2
2023-02-16T00:18:46.650Z,22.2
2023-02-16T00:22:57.059Z,26.1
2023-02-16T00:25:00.839Z,21.4
2023-02-16T00:27:04.625Z,23.9
2023-02-16T00:28:07.937Z,24.3
2023-02-16T00:30:11.831Z,23.2
2023-02-16T00:32:15.777Z,22
2023-02-16T00:34:19.317Z,27.5
2023-02-16T00:36:25.950Z,22.6
2023-02-16T00:42:37.312Z,25.7
2023-02-16T00:44:41.116Z,24.2
2023-02-16T00:46:44.942Z,22
2023-02-16T00:48:48.716Z,21.2
2023-02-16T00:50:55.304Z,27.5
2023-02-16T00:52:59.107Z,28.2
2023-02-16T00:55:02.885Z,23.9
2023-02-16T00:57:06.681Z,26.1
2023-02-16T00:59:10.485Z,22.4
2023-02-16T01:01:14.263Z,22.9
2023-02-16T01:03:18.037Z,24.7
2023-02-16T01:05:24.626Z,24.5
2023-02-16T01:07:28.424Z,29.2
2023-02-16T01:09:32.189Z,23.6
2023-02-16T01:11:36.001Z,26.8
2023-02-16T01:13:39.776Z,22.5
2023-02-16T01:15:43.666Z,26
2023-02-16T01:17:47.322Z,22.8
2023-02-16T01:19:53.943Z,27.3
2023-02-16T01:21:57.716Z,23.8
2023-02-16T01:25:04.827Z,25.7
2023-02-16T01:27:08.577Z,25
2023-02-16T01:29:12.374Z,24.5
2023-02-16T01:31:16.239Z,24.6
2023-02-16T01:35:26.547Z,29.9
2023-02-16T01:37:30.309Z,25.8
2023-02-16T01:41:37.894Z,25.4
2023-02-16T01:43:41.642Z,28.9
2023-02-16T01:45:45.426Z,25.8
2023-02-16T01:47:52.016Z,29.3
2023-02-16T01:49:55.789Z,28.1
2023-02-16T01:51:59.588Z,24.5
2023-02-16T01:56:07.182Z,28.2
2023-02-16T01:58:10.905Z,25.7
2023-02-16T02:00:14.699Z,27
2023-02-16T02:02:21.278Z,28.7
2023-02-16T02:04:25.085Z,24.7
2023-02-16T02:06:28.860Z,25.5
2023-02-16T02:10:36.381Z,25
2023-02-16T02:12:40.170Z,24.9
2023-02-16T02:18:54.303Z,29.3
2023-02-16T02:23:21.878Z,28.8
2023-02-16T02:25:25.670Z,25.8
2023-02-16T02:29:36.004Z,28.7
2023-02-16T02:35:47.309Z,26.6
2023-02-16T02:39:54.839Z,27.5
2023-02-16T02:41:58.615Z,29.2
2023-02-16T02:44:05.200Z,26.6
2023-02-16T02:46:09.090Z,25.5
2023-02-16T02:48:12.746Z,25.2
2023-02-16T02:50:16.504Z,26.1
2023-02-16T02:52:20.300Z,24.5
2023-02-16T02:54:24.067Z,25.1
2023-02-16T02:56:27.823Z,29
2023-02-16T03:04:46.222Z,29
2023-02-16T03:06:49.979Z,26.5
2023-02-16T03:10:57.519Z,24.8
2023-02-16T03:15:07.911Z,26
2023-02-16T03:17:11.652Z,27.1
2023-02-16T03:18:14.952Z,27.8
2023-02-16T03:20:18.737Z,25.3
2023-02-16T03:22:22.500Z,25.9
2023-02-16T03:24:26.277Z,26.1
2023-02-16T03:26:32.874Z,27
2023-02-16T03:28:36.650Z,24.6
2023-02-16T03:34:47.986Z,25.7
2023-02-16T03:36:51.781Z,25.1
2023-02-16T03:38:55.548Z,23.9
2023-02-16T03:41:02.350Z,25.8
2023-02-16T03:47:13.502Z,24
2023-02-16T03:49:17.262Z,24.8
2023-02-16T03:51:21.039Z,26.4
2023-02-16T03:53:24.832Z,22.8
2023-02-16T03:55:31.427Z,29.2
2023-02-16T03:57:35.215Z,25.2
2023-02-16T03:59:38.998Z,25.9
2023-02-16T04:01:42.846Z,25
2023-02-16T04:03:46.626Z,23.2
2023-02-16T04:05:50.390Z,26.9
2023-02-16T04:07:54.154Z,24.8
2023-02-16T04:10:00.762Z,26
2023-02-16T04:12:04.524Z,25.5
2023-02-16T04:14:08.317Z,26.8
2023-02-16T04:19:19.189Z,25.3
2023-02-16T04:21:22.988Z,28.3
2023-02-16T04:23:29.588Z,28
2023-02-16T04:25:33.395Z,25.4
2023-02-16T04:27:37.173Z,26.8
2023-02-16T04:29:40.953Z,24.1
2023-02-16T04:31:44.836Z,24.4
2023-02-16T04:33:48.566Z,26
2023-02-16T04:35:52.317Z,28.4
2023-02-16T04:37:58.916Z,24.9
2023-02-16T04:40:02.747Z,23.7
2023-02-16T04:42:06.507Z,25.7
2023-02-16T04:44:10.291Z,26.8
2023-02-16T04:46:14.167Z,28.7
2023-02-16T04:50:21.669Z,28.3
2023-02-16T04:52:28.257Z,28.6
2023-02-16T04:54:32.056Z,26
2023-02-16T04:56:35.843Z,27.9
2023-02-16T04:58:39.633Z,26.6
2023-02-16T05:00:43.422Z,25.6
2023-02-16T05:04:51.090Z,24.9
2023-02-16T05:06:57.628Z,28.6
2023-02-16T05:12:08.514Z,26.4
2023-02-16T05:18:19.903Z,26.3
2023-02-16T05:22:30.326Z,26.9
2023-02-16T05:24:34.112Z,26.3
2023-02-16T05:26:37.917Z,26.5
2023-02-16T05:28:41.740Z,23.7
2023-02-16T05:32:49.336Z,28.1
2023-02-16T05:34:55.955Z,30.5
2023-02-16T05:36:59.731Z,26.9
2023-02-16T05:39:03.556Z,25.5
2023-02-16T05:41:07.352Z,24.8
2023-02-16T05:43:11.167Z,24.8
2023-02-16T05:49:26.881Z,27.9
2023-02-16T05:51:30.651Z,27.6
2023-02-16T05:53:34.442Z,26
2023-02-16T05:55:38.263Z,26.4
2023-02-16T05:57:42.063Z,27
2023-02-16T06:01:51.898Z,23.6
2023-02-16T06:10:27.606Z,29.4
2023-02-16T06:12:31.395Z,23.9
2023-02-16T06:14:35.207Z,27.9
2023-02-16T06:16:41.800Z,26.8
2023-02-16T06:22:53.214Z,27.9
2023-02-16T06:24:57.026Z,30.2
2023-02-16T06:27:00.815Z,26
2023-02-16T06:35:18.806Z,27.6
2023-02-16T06:37:22.635Z,23.1
2023-02-16T06:39:26.404Z,27.4
2023-02-16T06:41:30.217Z,28.1
2023-02-16T06:43:34.004Z,28.3
2023-02-16T06:47:44.438Z,28.8
2023-02-16T06:49:48.238Z,30.2
2023-02-16T06:51:52.019Z,27.1
2023-02-16T06:53:55.809Z,27.3
2023-02-16T06:55:59.603Z,28.2
2023-02-16T07:00:10.017Z,32.9
2023-02-16T07:02:13.831Z,29.9
2023-02-16T07:04:17.606Z,27.7
2023-02-16T07:05:20.922Z,28.5
2023-02-16T07:07:24.716Z,31.3
2023-02-16T07:09:28.519Z,27.8
2023-02-16T07:11:32.326Z,26.9
2023-02-16T07:13:38.924Z,28.3
2023-02-16T07:15:42.749Z,27.3
2023-02-16T07:17:46.517Z,26.9
2023-02-16T07:19:50.323Z,27.7
2023-02-16T07:21:54.123Z,26.5
2023-02-16T07:23:57.917Z,30
2023-02-16T07:26:01.702Z,28
2023-02-16T07:28:08.341Z,30.5
2023-02-16T07:34:20.999Z,29.5
2023-02-16T07:36:23.526Z,27.8
2023-02-16T07:38:27.312Z,27.3
2023-02-16T07:40:31.134Z,27.6
2023-02-16T07:42:37.715Z,30.5
2023-02-16T07:44:41.530Z,25.8
2023-02-16T07:46:45.337Z,26.3
2023-02-16T07:48:49.142Z,26.6
2023-02-16T07:50:52.911Z,24.8
2023-02-16T07:52:56.732Z,25
2023-02-16T07:55:00.549Z,26.6
2023-02-16T07:57:07.144Z,29.3
2023-02-16T07:59:10.933Z,27.4
2023-02-16T08:01:15.968Z,23.2
2023-02-16T08:02:18.166Z,30.1
2023-02-16T08:04:21.849Z,30.5
2023-02-16T08:08:29.446Z,23.7
2023-02-16T08:16:49.517Z,23.9
2023-02-16T08:18:51.335Z,28.6
2023-02-16T08:22:58.963Z,25.2
2023-02-16T08:27:09.431Z,28.5
2023-02-16T08:29:13.322Z,28.9
2023-02-16T08:31:17.180Z,26.5
2023-02-16T08:33:20.885Z,27.6
2023-02-16T08:35:24.702Z,28.6
2023-02-16T08:37:28.522Z,28.1
2023-02-16T08:39:35.155Z,25.7
2023-02-16T08:41:38.978Z,28.9
2023-02-16T08:43:42.785Z,27.4
2023-02-16T08:45:46.676Z,26.9
2023-02-16T08:47:50.443Z,27
2023-02-16T08:49:54.272Z,28.3
2023-02-16T08:51:58.097Z,25.9
2023-02-16T08:54:05.986Z,28
2023-02-16T08:56:08.543Z,27.4
2023-02-16T08:58:12.384Z,28.3
2023-02-16T08:59:15.714Z,26.2
2023-02-16T09:01:19.584Z,27.6
2023-02-16T09:07:33.842Z,27.8
2023-02-16T09:11:41.489Z,31.6
2023-02-16T09:13:45.329Z,27.8
2023-02-16T09:15:49.147Z,25.9
2023-02-16T09:17:52.971Z,27.9
2023-02-16T09:19:56.803Z,28
2023-02-16T09:22:03.442Z,27.2
2023-02-16T09:26:11.128Z,27.2
2023-02-16T09:36:33.087Z,24.9
2023-02-16T09:40:40.766Z,28.7
2023-02-16T09:42:44.585Z,25.7
2023-02-16T09:46:52.274Z,27.1
2023-02-16T09:48:56.084Z,26.4
2023-02-16T09:51:02.775Z,28.1
2023-02-16T09:55:10.433Z,23.1
2023-02-16T09:57:40.003Z,26.2
2023-02-16T09:59:43.848Z,25.9
2023-02-16T10:05:58.138Z,29
2023-02-16T10:08:02.008Z,27.7
2023-02-16T10:10:05.854Z,27.7
2023-02-16T10:12:09.666Z,26.5
2023-02-16T10:14:13.507Z,24.5
2023-02-16T10:16:17.327Z,29.6
2023-02-16T10:22:31.631Z,29.1
2023-02-16T10:26:39.294Z,27.7
2023-02-16T10:28:43.122Z,30.3
2023-02-16T10:30:46.990Z,28.5
2023-02-16T10:32:53.575Z,34.3
2023-02-16T10:34:57.432Z,34
2023-02-16T10:37:01.255Z,29.3
2023-02-16T10:43:12.780Z,29.2
2023-02-16T10:45:16.479Z,31.6
2023-02-16T10:47:23.129Z,33.5
2023-02-16T10:49:26.958Z,34.9
2023-02-16T10:51:30.785Z,28.6
2023-02-16T10:52:34.117Z,35.8
2023-02-16T10:56:41.759Z,31.3
2023-02-16T10:58:45.591Z,31.5
2023-02-16T11:00:52.232Z,35
2023-02-16T11:02:56.069Z,33.7
2023-02-16T11:04:59.866Z,29.7
2023-02-16T11:07:03.683Z,34.9
2023-02-16T11:11:11.331Z,36.9
2023-02-16T11:13:15.166Z,32.7
2023-02-16T11:15:21.816Z,36.1
2023-02-16T11:17:25.614Z,34.2
2023-02-16T11:19:29.430Z,35.4
2023-02-16T11:21:33.253Z,33.1
2023-02-16T11:23:37.140Z,33
2023-02-16T11:27:44.716Z,35.2
2023-02-16T11:33:59.015Z,34.5
2023-02-16T11:40:10.492Z,35
2023-02-16T11:44:20.975Z,37.2
2023-02-16T11:48:29.041Z,36
2023-02-16T11:49:33.868Z,37.9
2023-02-16T11:51:37.630Z,35.9
2023-02-16T11:53:41.478Z,33
2023-02-16T11:55:45.301Z,37.9
2023-02-16T11:57:51.970Z,40.6
2023-02-16T11:59:55.786Z,37
2023-02-16T12:01:59.646Z,36.9
2023-02-16T12:04:03.611Z,34.8
2023-02-16T12:06:07.328Z,34.9
2023-02-16T12:08:11.158Z,36
2023-02-16T12:10:15.001Z,37.4
2023-02-16T12:12:21.664Z,33.3
2023-02-16T12:14:25.493Z,32.6
2023-02-16T12:16:29.450Z,30.2
2023-02-16T12:18:33.209Z,32.1
2023-02-16T12:20:37.045Z,30.3
2023-02-16T12:30:59.113Z,35.8
2023-02-16T12:33:02.980Z,31.5
2023-02-16T12:35:06.831Z,34.3
2023-02-16T12:37:10.694Z,32.5
2023-02-16T12:39:14.550Z,31
2023-02-16T12:41:21.192Z,30.1
2023-02-16T12:45:28.941Z,34.8
2023-02-16T12:52:43.846Z,30.8
2023-02-16T12:54:50.520Z,29.7
2023-02-16T12:56:54.371Z,30.7
2023-02-16T12:58:58.244Z,27
2023-02-16T13:01:02.277Z,30.1
2023-02-16T13:03:06.055Z,27.7
2023-02-16T13:05:09.850Z,28.8
2023-02-16T13:07:13.722Z,28.3
2023-02-16T13:11:24.321Z,29.8
2023-02-16T13:15:32.016Z,26.9
2023-02-16T13:19:39.776Z,31.2
2023-02-16T13:21:50.999Z,28
2023-02-16T13:23:50.334Z,33
2023-02-16T13:25:54.320Z,26.4
2023-02-16T13:27:58.184Z,28.7
2023-02-16T13:36:13.596Z,27.2
2023-02-16T13:38:20.284Z,26.2
2023-02-16T13:40:24.177Z,25
2023-02-16T13:42:28.048Z,24.5
2023-02-16T13:44:57.666Z,28.7
2023-02-16T13:47:01.554Z,24.9
2023-02-16T13:51:12.090Z,26.8
2023-02-16T13:57:23.915Z,23.2
2023-02-16T14:05:42.085Z,26
2023-02-16T14:07:45.977Z,22.3
2023-02-16T14:09:49.861Z,23.3
2023-02-16T14:11:53.728Z,26.5
2023-02-16T14:13:57.601Z,25.6
2023-02-16T14:16:01.536Z,22.7
2023-02-16T14:20:12.068Z,25.8
2023-02-16T14:22:15.931Z,21.9
2023-02-16T14:24:19.806Z,20.3
2023-02-16T14:26:23.716Z,20.3
2023-02-16T14:28:27.551Z,21
2023-02-16T14:30:31.567Z,22.7
2023-02-16T14:32:35.322Z,21.3
2023-02-16T14:34:41.996Z,20.7
2023-02-16T14:36:45.860Z,20.4
2023-02-16T14:38:49.749Z,19.7
2023-02-16T14:41:56.961Z,19.5
2023-02-16T14:44:00.863Z,23.3
2023-02-16T14:50:15.313Z,21.6
2023-02-16T14:52:19.166Z,19.8
2023-02-16T14:56:27.276Z,18.2
2023-02-16T14:58:30.795Z,19
2023-02-16T15:00:34.686Z,17.3
2023-02-16T15:02:41.396Z,19.9
2023-02-16T15:04:45.271Z,17.6
2023-02-16T15:06:49.151Z,17.5
2023-02-16T15:08:53.041Z,20.3
2023-02-16T15:10:56.939Z,17.4
2023-02-16T15:13:00.816Z,19
2023-02-16T15:15:04.703Z,18
2023-02-16T15:17:11.407Z,20.4
2023-02-16T15:19:15.279Z,19.6
2023-02-16T15:21:19.175Z,19.2
2023-02-16T15:23:23.142Z,20.6
2023-02-16T15:25:26.931Z,17.2
2023-02-16T15:27:30.824Z,17.3
2023-02-16T15:29:34.715Z,18.5
2023-02-16T15:31:41.519Z,19.7
2023-02-16T15:33:45.330Z,20
2023-02-16T15:35:49.187Z,18
2023-02-16T15:36:52.535Z,17.8
2023-02-16T15:38:56.418Z,18.9
2023-02-16T15:41:00.297Z,19
2023-02-16T15:43:04.159Z,20.7
2023-02-16T15:45:10.885Z,19.7
2023-02-16T15:47:14.776Z,18.8
2023-02-16T15:49:18.646Z,18.6
2023-02-16T15:51:22.543Z,20.1
2023-02-16T15:55:30.289Z,22.1
2023-02-16T15:59:40.923Z,19.8
2023-02-16T16:01:44.791Z,17.5
2023-02-16T16:03:48.897Z,20.8
2023-02-16T16:07:56.400Z,16.4
2023-02-16T16:10:00.365Z,18.5
2023-02-16T16:12:04.168Z,18.2
2023-02-16T16:14:10.846Z,17.2
2023-02-16T16:20:22.494Z,16.1
2023-02-16T16:22:26.374Z,18.1
2023-02-16T16:24:30.251Z,17.1
2023-02-16T16:26:34.131Z,20.3
2023-02-16T16:28:40.814Z,17.7
2023-02-16T16:30:44.716Z,19.3
2023-02-16T16:32:48.578Z,18.8
2023-02-16T16:37:59.685Z,19.1
2023-02-16T16:40:03.554Z,16.3
2023-02-16T16:42:10.259Z,18
2023-02-16T16:44:14.115Z,18
2023-02-16T16:46:17.990Z,18.7
2023-02-16T16:48:21.880Z,19.2
2023-02-16T16:50:25.745Z,18.1
2023-02-16T16:52:29.640Z,20.1
2023-02-16T16:54:33.474Z,19.2
2023-02-16T16:56:40.159Z,19.4
2023-02-16T16:58:44.041Z,17.3
2023-02-16T17:00:47.921Z,22.2
2023-02-16T17:02:51.780Z,22.9
2023-02-16T17:04:55.656Z,22.5
2023-02-16T17:06:59.541Z,19.5
2023-02-16T17:09:03.450Z,24.7
2023-02-16T17:11:10.128Z,20.6
2023-02-16T17:13:13.963Z,20.7
2023-02-16T17:17:21.685Z,23.9
2023-02-16T17:21:29.408Z,20.8
2023-02-16T17:23:33.290Z,21.2
2023-02-16T17:25:39.955Z,22.6
2023-02-16T17:27:43.860Z,25.2
2023-02-16T17:29:47.723Z,22.2
2023-02-16T17:32:17.450Z,25
2023-02-16T17:34:21.200Z,22.7
2023-02-16T17:38:31.739Z,24.7
2023-02-16T17:40:35.633Z,24
2023-02-16T17:42:39.706Z,22.3
2023-02-16T17:44:43.331Z,21.7
2023-02-16T17:57:10.812Z,22.9
2023-02-16T18:03:22.417Z,23.4
2023-02-16T18:05:26.280Z,24.8
2023-02-16T18:07:33.109Z,27.4
2023-02-16T18:09:36.838Z,24.3
2023-02-16T18:13:44.583Z,23.4
2023-02-16T18:15:48.449Z,21.9
2023-02-16T18:19:56.190Z,22.6
2023-02-16T18:22:02.873Z,20.1
2023-02-16T18:24:06.748Z,24
2023-02-16T18:26:10.589Z,25.5
2023-02-16T18:27:13.942Z,29.1
2023-02-16T18:29:17.827Z,22.5
2023-02-16T18:31:21.776Z,25.3
2023-02-16T18:33:25.586Z,26.1
2023-02-16T18:35:32.227Z,26.1
2023-02-16T18:37:36.099Z,23.3
2023-02-16T18:41:43.853Z,22.3
2023-02-16T18:43:47.730Z,24
2023-02-16T18:45:51.653Z,23.3
2023-02-16T18:50:02.125Z,24.2
2023-02-16T18:52:06.019Z,21.3
2023-02-16T18:54:09.878Z,17.8
2023-02-16T18:56:13.753Z,19.3
2023-02-16T18:58:17.613Z,23.3
2023-02-16T19:00:21.495Z,20.6
2023-02-16T19:02:25.327Z,23
2023-02-16T19:04:32.025Z,26.6
2023-02-16T19:06:35.871Z,22.7
2023-02-16T19:08:39.746Z,23.1
2023-02-16T19:10:43.632Z,24
2023-02-16T19:12:47.472Z,26.3
2023-02-16T19:16:55.194Z,22.5
2023-02-16T19:19:01.893Z,21.2
2023-02-16T19:21:05.758Z,22.4
2023-02-16T19:23:09.605Z,21.2
2023-02-16T19:24:12.963Z,21.5
2023-02-16T19:30:24.637Z,26.2
2023-02-16T19:32:31.215Z,23
2023-02-16T19:34:35.099Z,26.5
2023-02-16T19:36:38.956Z,22.2
2023-02-16T19:38:42.808Z,22.4
2023-02-16T19:49:04.904Z,24.2
2023-02-16T19:51:08.783Z,27.2
2023-02-16T19:53:12.638Z,23
2023-02-16T19:55:16.501Z,26.1
2023-02-16T19:57:20.334Z,22.5
2023-02-16T19:59:24.197Z,24
2023-02-16T20:01:30.971Z,22.1
2023-02-16T20:03:34.741Z,23.1
2023-02-16T20:05:38.601Z,24
2023-02-16T20:07:42.516Z,27.4
2023-02-16T20:09:46.310Z,27
2023-02-16T20:11:50.196Z,26
2023-02-16T20:13:54.039Z,29.1
2023-02-16T20:16:00.813Z,26.8
2023-02-16T20:18:04.601Z,25.2
2023-02-16T20:20:08.486Z,21.7
2023-02-16T20:21:11.805Z,25.6
2023-02-16T20:27:23.356Z,25.4
2023-02-16T20:31:34.042Z,25.6
2023-02-16T20:33:37.772Z,22.4
2023-02-16T20:35:41.668Z,23.7
2023-02-16T20:37:45.495Z,24.4
2023-02-16T20:39:49.376Z,22
2023-02-16T20:41:53.255Z,22.7
2023-02-16T20:43:59.923Z,15.6
2023-02-16T20:46:04.159Z,23
2023-02-16T20:48:07.647Z,22.8
2023-02-16T20:50:11.534Z,22.2
2023-02-16T20:52:15.394Z,23.6
2023-02-16T20:54:19.277Z,21.8
2023-02-16T20:56:23.142Z,21.2
2023-02-16T20:58:29.824Z,20.2
2023-02-16T21:00:33.779Z,17.7
2023-02-16T21:02:37.569Z,19.6
2023-02-16T21:04:41.442Z,18.2
2023-02-16T21:06:45.306Z,21.1
2023-02-16T21:08:49.181Z,22.3
2023-02-16T21:10:53.050Z,18.6
2023-02-16T21:12:59.710Z,21.7
2023-02-16T21:15:03.605Z,21.2
2023-02-16T21:17:07.459Z,17.4
2023-02-16T21:25:51.505Z,21.8
2023-02-16T21:27:55.362Z,20.3
2023-02-16T21:29:59.251Z,22.8
2023-02-16T21:32:03.138Z,23.7
2023-02-16T21:34:06.981Z,24.7
2023-02-16T21:40:21.399Z,22.7
2023-02-16T21:44:29.132Z,21.7
2023-02-16T21:46:33.033Z,21.5
2023-02-16T21:48:36.878Z,18.7
2023-02-16T21:50:40.732Z,21.8
2023-02-16T21:52:44.632Z,19.6
2023-02-16T21:54:51.287Z,20.1
2023-02-16T21:56:55.178Z,19
2023-02-16T21:58:59.038Z,2.9
2023-02-16T22:01:02.976Z,0.1
2023-02-16T22:03:06.777Z,0.1
2023-02-16T22:05:10.628Z,0.1
2023-02-16T22:07:14.502Z,0.1
2023-02-16T22:09:21.191Z,0.1
2023-02-16T22:11:25.071Z,0.1
2023-02-16T22:13:28.905Z,0.1
2023-02-16T22:16:36.210Z,0
2023-02-16T22:18:40.025Z,0.1
2023-02-16T22:31:06.111Z,0
2023-02-16T22:41:28.223Z,0.1
2023-02-16T22:45:36.041Z,0.1
2023-02-16T22:51:50.382Z,0.1
2023-02-16T22:53:54.292Z,0.1
2023-02-16T22:55:58.115Z,0
2023-02-16T22:58:02.010Z,0.1
2023-02-16T23:00:05.890Z,0.1
2023-02-16T23:06:20.298Z,0.1
2023-02-16T23:08:24.176Z,0
2023-02-16T23:10:28.018Z,0
2023-02-16T23:11:31.365Z,0
2023-02-16T23:13:35.261Z,0.1
2023-02-16T23:15:39.117Z,0.1
2023-02-16T23:21:53.575Z,0.1
2023-02-16T23:23:57.434Z,0
2023-02-16T23:26:01.319Z,0.1
2023-02-16T23:30:09.092Z,0
2023-02-16T23:36:23.498Z,0.1
2023-02-16T23:38:27.381Z,0
2023-02-16T23:40:31.247Z,0
2023-02-16T23:42:35.124Z,0
2023-02-16T23:44:40.509Z,0
2023-02-16T23:46:44.339Z,0
2023-02-16T23:48:51.023Z,0
2023-02-16T23:52:58.812Z,0
2023-02-16T23:57:06.531Z,0
2023-02-16T23:59:10.391Z,0
